createdAt,value
2023-04-05T00:02:21.330Z,99.90
2023-04-05T00:04:52.164Z,99.90
2023-04-05T00:07:21.540Z,99.90
2023-04-05T00:09:49.604Z,99.90
2023-04-05T00:12:16.872Z,99.90
2023-04-05T00:14:44.915Z,99.90
2023-04-05T00:17:12.823Z,99.90
2023-04-05T00:19:40.270Z,99.90
2023-04-05T00:22:10.938Z,99.90
2023-04-05T00:24:41.938Z,99.90
2023-04-05T00:27:09.347Z,99.90
2023-04-05T00:29:36.563Z,99.90
2023-04-05T00:32:04.715Z,99.90
2023-04-05T00:34:33.552Z,99.90
2023-04-05T00:37:00.829Z,99.90
2023-04-05T00:39:28.002Z,99.90
2023-04-05T00:41:56.132Z,99.90
2023-04-05T00:44:23.361Z,99.90
2023-04-05T00:46:51.126Z,99.90
2023-04-05T00:49:18.559Z,99.90
2023-04-05T00:51:46.568Z,99.90
2023-04-05T00:54:15.101Z,99.90
2023-04-05T00:56:42.413Z,99.90
2023-04-05T00:59:09.712Z,99.90
2023-04-05T01:01:40.977Z,99.90
2023-04-05T01:04:11.484Z,99.90
2023-04-05T01:06:54.174Z,99.90
2023-04-05T01:09:34.761Z,99.90
2023-04-05T01:12:06.963Z,99.90
2023-04-05T01:14:55.639Z,99.90
2023-04-05T01:17:28.147Z,99.90
2023-04-05T01:20:01.022Z,99.90
2023-04-05T01:22:52.090Z,99.90
2023-04-05T01:25:47.071Z,99.90
2023-04-05T01:28:44.678Z,99.90
2023-04-05T01:32:14.493Z,99.90
2023-04-05T01:34:57.020Z,99.90
2023-04-05T01:37:28.005Z,99.90
2023-04-05T01:39:55.691Z,99.90
2023-04-05T01:42:27.130Z,99.90
2023-04-05T01:44:56.331Z,99.90
2023-04-05T01:47:23.718Z,99.90
2023-04-05T01:49:51.006Z,99.90
2023-04-05T01:52:18.267Z,99.90
2023-04-05T01:54:45.612Z,99.90
2023-04-05T01:57:12.924Z,99.90
2023-04-05T01:59:40.317Z,99.90
2023-04-05T02:02:07.670Z,99.90
2023-04-05T02:04:35.470Z,99.90
2023-04-05T02:07:04.193Z,99.90
2023-04-05T02:09:31.374Z,99.90
2023-04-05T02:11:58.804Z,99.90
2023-04-05T02:14:26.036Z,99.90
2023-04-05T02:16:56.634Z,99.90
2023-04-05T02:19:26.063Z,99.90
2023-04-05T02:21:56.753Z,99.90
2023-04-05T02:24:23.961Z,99.90
2023-04-05T02:26:51.380Z,99.90
2023-04-05T02:29:18.672Z,99.90
2023-04-05T02:31:45.940Z,99.90
2023-04-05T02:34:14.325Z,99.90
2023-04-05T02:36:41.941Z,99.90
2023-04-05T02:39:09.212Z,99.90
2023-04-05T02:41:38.781Z,99.90
2023-04-05T02:44:06.132Z,99.90
2023-04-05T02:46:33.468Z,99.90
2023-04-05T02:49:01.960Z,99.90
2023-04-05T02:51:34.343Z,99.90
2023-04-05T02:54:05.804Z,99.90
2023-04-05T02:56:36.627Z,99.90
2023-04-05T02:59:09.821Z,99.90
2023-04-05T03:01:38.222Z,99.90
2023-04-05T03:04:06.887Z,99.90
2023-04-05T03:06:34.183Z,99.90
2023-04-05T03:09:04.831Z,99.90
2023-04-05T03:11:33.994Z,99.90
2023-04-05T03:14:01.580Z,99.90
2023-04-05T03:16:41.683Z,99.90
2023-04-05T03:19:30.311Z,99.90
2023-04-05T03:22:08.148Z,99.90
2023-04-05T03:24:37.443Z,99.90
2023-04-05T03:27:07.941Z,99.90
2023-04-05T03:29:47.283Z,99.90
2023-04-05T03:32:17.916Z,99.90
2023-04-05T03:34:56.782Z,99.90
2023-04-05T03:37:24.922Z,99.90
2023-04-05T03:40:06.550Z,99.90
2023-04-05T03:42:33.747Z,99.90
2023-04-05T03:45:01.015Z,99.90
2023-04-05T03:47:28.395Z,99.90
2023-04-05T03:49:55.716Z,99.90
2023-04-05T03:52:22.968Z,99.90
2023-04-05T03:54:50.570Z,99.90
2023-04-05T03:57:22.403Z,99.90
2023-04-05T03:59:52.806Z,99.90
2023-04-05T04:02:20.083Z,99.90
2023-04-05T04:04:47.595Z,99.90
2023-04-05T04:07:15.603Z,99.90
2023-04-05T04:09:42.837Z,99.90
2023-04-05T04:12:11.619Z,99.90
2023-04-05T04:14:46.842Z,99.90
2023-04-05T04:17:34.529Z,99.90
2023-04-05T04:20:26.231Z,99.90
2023-04-05T04:23:01.824Z,99.90
2023-04-05T04:25:54.846Z,99.90
2023-04-05T04:28:49.146Z,99.90
2023-04-05T04:31:25.191Z,99.90
2023-04-05T04:33:55.580Z,99.90
2023-04-05T04:37:00.601Z,99.90
2023-04-05T04:39:49.726Z,99.90
2023-04-05T04:42:52.407Z,99.90
2023-04-05T04:45:41.781Z,99.90
2023-04-05T04:48:21.587Z,99.90
2023-04-05T04:50:58.684Z,99.90
2023-04-05T04:53:27.778Z,99.90
2023-04-05T04:55:56.267Z,99.90
2023-04-05T04:58:23.446Z,99.90
2023-04-05T05:01:01.330Z,99.90
2023-04-05T05:03:28.669Z,99.90
2023-04-05T05:05:57.076Z,99.90
2023-04-05T05:08:30.060Z,99.90
2023-04-05T05:10:57.310Z,99.90
2023-04-05T05:13:24.572Z,99.90
2023-04-05T05:15:51.839Z,99.90
2023-04-05T05:18:19.172Z,99.90
2023-04-05T05:20:50.451Z,99.90
2023-04-05T05:23:17.638Z,99.90
2023-04-05T05:25:44.853Z,99.90
2023-04-05T05:28:13.946Z,99.90
2023-04-05T05:30:41.450Z,99.90
2023-04-05T05:33:08.931Z,99.90
2023-04-05T05:35:38.084Z,99.90
2023-04-05T05:38:07.094Z,99.90
2023-04-05T05:40:36.524Z,99.90
2023-04-05T05:43:04.216Z,99.90
2023-04-05T05:45:32.805Z,99.90
2023-04-05T05:48:00.024Z,99.90
2023-04-05T05:50:27.328Z,99.90
2023-04-05T05:52:54.777Z,99.90
2023-04-05T05:55:22.188Z,99.90
2023-04-05T05:57:49.960Z,99.90
2023-04-05T06:00:18.216Z,99.90
2023-04-05T06:02:45.788Z,99.90
2023-04-05T06:05:13.205Z,99.90
2023-04-05T06:07:40.649Z,99.90
2023-04-05T06:10:09.314Z,99.90
2023-04-05T06:12:36.536Z,99.90
2023-04-05T06:15:04.357Z,99.90
2023-04-05T06:17:31.994Z,99.90
2023-04-05T06:19:59.194Z,99.90
2023-04-05T06:22:27.555Z,99.90
2023-04-05T06:24:54.822Z,99.90
2023-04-05T06:27:22.023Z,99.90
2023-04-05T06:29:49.259Z,99.90
2023-04-05T06:32:16.484Z,99.90
2023-04-05T06:34:46.541Z,99.90
2023-04-05T06:37:13.760Z,99.90
2023-04-05T06:39:41.232Z,99.90
2023-04-05T06:42:08.581Z,99.90
2023-04-05T06:44:43.525Z,99.90
2023-04-05T06:47:10.933Z,99.90
2023-04-05T06:49:38.166Z,99.90
2023-04-05T06:52:08.525Z,99.90
2023-04-05T06:54:39.208Z,99.90
2023-04-05T06:57:06.517Z,99.90
2023-04-05T06:59:33.926Z,99.90
2023-04-05T07:02:01.588Z,99.90
2023-04-05T07:04:32.809Z,99.90
2023-04-05T07:07:02.385Z,99.90
2023-04-05T07:09:33.823Z,99.90
2023-04-05T07:12:03.864Z,99.90
2023-04-05T07:14:36.527Z,99.90
2023-04-05T07:17:06.422Z,99.90
2023-04-05T07:19:33.993Z,99.90
2023-04-05T07:22:04.969Z,99.90
2023-04-05T07:24:45.481Z,99.90
2023-04-05T07:27:13.091Z,99.90
2023-04-05T07:29:44.142Z,99.90
2023-04-05T07:32:14.997Z,99.90
2023-04-05T07:34:42.922Z,99.90
2023-04-05T07:37:12.744Z,99.90
2023-04-05T07:39:41.015Z,99.90
2023-04-05T07:42:21.623Z,99.90
2023-04-05T07:44:52.742Z,99.90
2023-04-05T07:47:23.163Z,99.90
2023-04-05T07:49:50.391Z,99.90
2023-04-05T07:52:17.958Z,99.90
2023-04-05T07:54:45.990Z,99.90
2023-04-05T07:57:19.851Z,99.90
2023-04-05T07:59:51.034Z,99.90
2023-04-05T08:02:18.215Z,99.90
2023-04-05T08:04:46.180Z,99.90
2023-04-05T08:07:13.718Z,99.90
2023-04-05T08:09:41.446Z,99.90
2023-04-05T08:12:08.657Z,99.90
2023-04-05T08:14:38.980Z,99.90
2023-04-05T08:17:07.880Z,99.90
2023-04-05T08:19:36.521Z,99.90
2023-04-05T08:22:03.937Z,99.90
2023-04-05T08:24:31.556Z,99.90
2023-04-05T08:26:59.267Z,99.90
2023-04-05T08:29:27.106Z,99.90
2023-04-05T08:31:59.139Z,99.90
2023-04-05T08:34:29.847Z,99.90
2023-04-05T08:37:11.296Z,99.90
2023-04-05T08:39:38.906Z,99.90
2023-04-05T08:42:17.078Z,99.90
2023-04-05T08:44:46.794Z,99.90
2023-04-05T08:47:20.603Z,99.90
2023-04-05T08:49:48.925Z,99.90
2023-04-05T08:52:20.317Z,99.90
2023-04-05T08:54:49.637Z,99.90
2023-04-05T08:57:21.746Z,99.90
2023-04-05T08:59:49.788Z,99.90
2023-04-05T09:02:19.879Z,99.90
2023-04-05T09:04:48.778Z,99.90
2023-04-05T09:07:16.571Z,99.10
2023-04-05T09:09:50.432Z,98.00
2023-04-05T09:12:23.017Z,97.80
2023-04-05T09:14:52.189Z,96.40
2023-04-05T09:17:20.123Z,97.30
2023-04-05T09:19:50.460Z,97.30
2023-04-05T09:22:26.473Z,97.30
2023-04-05T09:24:53.671Z,97.60
2023-04-05T09:27:23.218Z,97.20
2023-04-05T09:29:58.264Z,96.50
2023-04-05T09:32:31.148Z,95.80
2023-04-05T09:35:03.339Z,95.80
2023-04-05T09:37:35.476Z,94.70
2023-04-05T09:40:06.792Z,94.30
2023-04-05T09:42:52.001Z,94.60
2023-04-05T09:45:22.110Z,92.70
2023-04-05T09:48:02.967Z,91.10
2023-04-05T09:50:39.396Z,86.80
2023-04-05T09:53:10.037Z,85.30
2023-04-05T09:55:37.759Z,82.90
2023-04-05T09:58:05.082Z,81.50
2023-04-05T10:00:33.133Z,78.90
2023-04-05T10:03:00.869Z,79.40
2023-04-05T10:05:29.182Z,81.40
2023-04-05T10:07:57.048Z,82.10
2023-04-05T10:10:25.412Z,81.80
2023-04-05T10:12:54.054Z,85.00
2023-04-05T10:15:22.382Z,86.30
2023-04-05T10:17:58.956Z,90.40
2023-04-05T10:20:31.345Z,91.00
2023-04-05T10:23:11.474Z,90.50
2023-04-05T10:25:54.085Z,87.00
2023-04-05T10:28:33.767Z,80.20
2023-04-05T10:31:38.155Z,77.70
2023-04-05T10:34:08.955Z,72.40
2023-04-05T10:37:02.353Z,72.50
2023-04-05T10:39:41.598Z,70.50
2023-04-05T10:42:27.293Z,67.30
2023-04-05T10:45:04.827Z,66.70
2023-04-05T10:47:37.985Z,67.30
2023-04-05T10:50:09.576Z,69.50
2023-04-05T10:52:37.291Z,67.70
2023-04-05T10:55:05.484Z,65.30
2023-04-05T10:57:33.654Z,64.20
2023-04-05T11:00:01.957Z,64.40
2023-04-05T11:02:30.643Z,64.60
2023-04-05T11:05:05.176Z,63.60
2023-04-05T11:07:47.058Z,61.20
2023-04-05T11:10:19.304Z,61.30
2023-04-05T11:12:46.985Z,59.60
2023-04-05T11:15:35.098Z,56.60
2023-04-05T11:18:20.229Z,53.80
2023-04-05T11:20:52.340Z,51.40
2023-04-05T11:23:22.658Z,51.30
2023-04-05T11:25:57.663Z,52.90
2023-04-05T11:28:43.058Z,55.60
2023-04-05T11:31:18.234Z,55.10
2023-04-05T11:33:54.764Z,57.30
2023-04-05T11:36:50.539Z,59.00
2023-04-05T11:39:23.061Z,59.80
2023-04-05T11:42:04.914Z,59.60
2023-04-05T11:44:47.857Z,58.50
2023-04-05T11:47:21.717Z,55.00
2023-04-05T11:49:52.548Z,54.30
2023-04-05T11:52:21.789Z,55.80
2023-04-05T11:54:50.003Z,56.80
2023-04-05T11:57:24.457Z,58.50
2023-04-05T11:59:53.324Z,59.30
2023-04-05T12:02:21.518Z,59.40
2023-04-05T12:04:57.286Z,62.60
2023-04-05T12:07:29.370Z,60.10
2023-04-05T12:10:08.861Z,57.20
2023-04-05T12:12:44.231Z,56.50
2023-04-05T12:15:14.743Z,55.50
2023-04-05T12:17:43.588Z,55.70
2023-04-05T12:20:13.704Z,55.90
2023-04-05T12:22:43.641Z,54.60
2023-04-05T12:25:11.802Z,58.50
2023-04-05T12:27:39.844Z,62.30
2023-04-05T12:30:20.884Z,65.40
2023-04-05T12:32:55.068Z,67.60
2023-04-05T12:35:27.127Z,68.20
2023-04-05T12:37:58.995Z,70.40
2023-04-05T12:40:27.649Z,67.60
2023-04-05T12:43:10.555Z,69.40
2023-04-05T12:45:42.533Z,69.80
2023-04-05T12:48:15.797Z,71.20
2023-04-05T12:50:45.413Z,74.00
2023-04-05T12:53:20.920Z,74.80
2023-04-05T12:55:56.175Z,69.00
2023-04-05T12:58:34.564Z,67.10
2023-04-05T13:01:01.845Z,69.50
2023-04-05T13:03:29.793Z,72.20
2023-04-05T13:05:58.435Z,73.80
2023-04-05T13:08:26.973Z,74.10
2023-04-05T13:10:56.514Z,74.30
2023-04-05T13:13:25.357Z,76.90
2023-04-05T13:15:52.874Z,76.90
2023-04-05T13:18:20.671Z,75.40
2023-04-05T13:20:48.171Z,76.10
2023-04-05T13:23:15.330Z,73.10
2023-04-05T13:25:45.559Z,65.80
2023-04-05T13:28:12.952Z,60.50
2023-04-05T13:30:40.257Z,55.10
2023-04-05T13:33:07.730Z,53.40
2023-04-05T13:35:34.945Z,52.70
2023-04-05T13:38:04.650Z,51.40
2023-04-05T13:40:32.747Z,49.20
2023-04-05T13:43:00.484Z,47.50
2023-04-05T13:45:28.638Z,47.50
2023-04-05T13:47:55.944Z,45.60
2023-04-05T13:50:23.437Z,45.00
2023-04-05T13:52:51.703Z,45.50
2023-04-05T13:55:18.985Z,45.10
2023-04-05T13:57:46.400Z,46.10
2023-04-05T14:00:14.647Z,47.30
2023-04-05T14:02:42.348Z,46.40
2023-04-05T14:05:10.304Z,46.10
2023-04-05T14:07:37.656Z,45.70
2023-04-05T14:10:06.677Z,44.60
2023-04-05T14:12:34.622Z,43.90
2023-04-05T14:15:02.159Z,46.20
2023-04-05T14:17:29.584Z,50.20
2023-04-05T14:19:56.739Z,54.40
2023-04-05T14:22:23.892Z,57.90
2023-04-05T14:24:51.127Z,60.50
2023-04-05T14:27:18.301Z,63.70
2023-04-05T14:29:45.934Z,65.80
2023-04-05T14:32:13.244Z,67.40
2023-04-05T14:34:40.505Z,69.60
2023-04-05T14:37:08.054Z,72.60
2023-04-05T14:39:35.213Z,73.00
2023-04-05T14:42:03.143Z,72.40
2023-04-05T14:44:30.355Z,74.20
2023-04-05T14:46:57.463Z,75.80
2023-04-05T14:49:24.522Z,78.50
2023-04-05T14:51:51.676Z,78.70
2023-04-05T14:54:18.827Z,79.00
2023-04-05T14:56:46.249Z,79.00
2023-04-05T14:59:13.382Z,78.60
2023-04-05T15:01:42.592Z,77.30
2023-04-05T15:04:10.017Z,76.70
2023-04-05T15:06:37.618Z,76.90
2023-04-05T15:09:04.875Z,77.10
2023-04-05T15:11:35.516Z,77.20
2023-04-05T15:14:02.734Z,77.30
2023-04-05T15:16:30.668Z,77.40
2023-04-05T15:18:59.165Z,77.20
2023-04-05T15:21:26.503Z,76.10
2023-04-05T15:23:53.692Z,73.80
2023-04-05T15:26:21.605Z,73.70
2023-04-05T15:28:48.820Z,74.20
2023-04-05T15:31:16.070Z,73.60
2023-04-05T15:33:43.307Z,72.70
2023-04-05T15:36:10.693Z,74.60
2023-04-05T15:38:37.911Z,76.70
2023-04-05T15:41:05.261Z,77.20
2023-04-05T15:43:34.070Z,77.90
2023-04-05T15:46:01.715Z,78.90
2023-04-05T15:48:28.839Z,80.00
2023-04-05T15:50:56.209Z,80.10
2023-04-05T15:53:23.421Z,80.80
2023-04-05T15:55:50.690Z,80.30
2023-04-05T15:58:18.050Z,79.70
2023-04-05T16:00:45.738Z,78.50
2023-04-05T16:03:13.115Z,78.60
2023-04-05T16:05:40.347Z,79.00
2023-04-05T16:08:07.504Z,79.40
2023-04-05T16:10:35.248Z,80.10
2023-04-05T16:13:03.205Z,80.10
2023-04-05T16:15:30.551Z,80.30
2023-04-05T16:17:58.475Z,80.00
2023-04-05T16:20:26.106Z,80.00
2023-04-05T16:22:53.311Z,80.50
2023-04-05T16:25:20.777Z,81.50
2023-04-05T16:27:47.937Z,82.30
2023-04-05T16:30:15.961Z,83.20
2023-04-05T16:32:43.501Z,84.30
2023-04-05T16:35:10.918Z,85.50
2023-04-05T16:37:38.813Z,86.10
2023-04-05T16:40:07.644Z,86.30
2023-04-05T16:42:34.910Z,86.90
2023-04-05T16:45:02.449Z,86.80
2023-04-05T16:47:29.623Z,87.60
2023-04-05T16:49:57.016Z,88.40
2023-04-05T16:52:24.274Z,89.30
2023-04-05T16:54:51.518Z,90.40
2023-04-05T16:57:18.808Z,90.90
2023-04-05T16:59:46.300Z,91.20
2023-04-05T17:02:13.504Z,91.60
2023-04-05T17:04:41.489Z,92.00
2023-04-05T17:07:08.710Z,92.40
2023-04-05T17:09:35.969Z,92.80
2023-04-05T17:12:04.142Z,93.10
2023-04-05T17:14:31.468Z,93.40
2023-04-05T17:16:58.776Z,93.70
2023-04-05T17:19:26.134Z,94.40
2023-04-05T17:21:53.249Z,94.70
2023-04-05T17:24:20.415Z,95.10
2023-04-05T17:26:47.769Z,95.30
2023-04-05T17:29:17.476Z,95.80
2023-04-05T17:31:44.986Z,96.20
2023-04-05T17:34:14.859Z,96.50
2023-04-05T17:36:43.127Z,97.00
2023-04-05T17:39:10.504Z,97.40
2023-04-05T17:41:37.634Z,98.00
2023-04-05T17:44:04.949Z,98.40
2023-04-05T17:46:41.655Z,98.80
2023-04-05T17:49:11.871Z,99.30
2023-04-05T17:51:39.435Z,99.60
2023-04-05T17:54:06.715Z,99.90
2023-04-05T17:56:33.828Z,99.90
2023-04-05T17:59:01.066Z,99.90
2023-04-05T18:01:28.436Z,99.90
2023-04-05T18:03:56.120Z,99.90
2023-04-05T18:06:23.779Z,99.90
2023-04-05T18:08:51.365Z,99.90
2023-04-05T18:11:18.605Z,99.90
2023-04-05T18:13:45.822Z,99.90
2023-04-05T18:16:13.059Z,99.90
2023-04-05T18:18:40.407Z,99.90
2023-04-05T18:21:07.646Z,99.90
2023-04-05T18:23:34.896Z,99.90
2023-04-05T18:26:09.757Z,99.90
2023-04-05T18:28:37.016Z,99.90
2023-04-05T18:31:04.275Z,99.90
2023-04-05T18:33:31.734Z,99.90
2023-04-05T18:35:58.858Z,99.90
2023-04-05T18:38:26.528Z,99.90
2023-04-05T18:41:03.094Z,99.90
2023-04-05T18:43:31.104Z,99.90
2023-04-05T18:45:58.271Z,99.90
2023-04-05T18:48:25.596Z,99.90
2023-04-05T18:50:56.051Z,99.90
2023-04-05T18:53:23.528Z,99.90
2023-04-05T18:55:52.072Z,99.90
2023-04-05T18:58:20.059Z,99.90
2023-04-05T19:00:47.208Z,99.90
2023-04-05T19:03:16.334Z,99.90
2023-04-05T19:05:50.710Z,99.90
2023-04-05T19:08:19.114Z,99.90
2023-04-05T19:10:48.715Z,99.90
2023-04-05T19:13:16.018Z,99.90
2023-04-05T19:15:45.354Z,99.90
2023-04-05T19:18:12.552Z,99.90
2023-04-05T19:20:39.770Z,99.90
2023-04-05T19:23:07.047Z,99.90
2023-04-05T19:25:34.121Z,99.90
2023-04-05T19:28:03.087Z,99.90
2023-04-05T19:30:32.932Z,99.90
2023-04-05T19:33:00.207Z,99.90
2023-04-05T19:35:27.502Z,99.90
2023-04-05T19:37:54.691Z,99.90
2023-04-05T19:40:23.576Z,99.90
2023-04-05T19:42:52.359Z,99.90
2023-04-05T19:45:29.339Z,99.90
2023-04-05T19:48:00.368Z,99.90
2023-04-05T19:50:49.749Z,99.90
2023-04-05T19:53:49.599Z,99.90
2023-04-05T19:56:21.871Z,99.90
2023-04-05T19:58:59.419Z,99.90
2023-04-05T20:01:38.954Z,99.90
2023-04-05T20:04:20.294Z,99.90
2023-04-05T20:06:55.485Z,99.90
2023-04-05T20:09:31.013Z,99.90
2023-04-05T20:12:02.028Z,99.90
2023-04-05T20:14:49.198Z,99.90
2023-04-05T20:17:29.816Z,99.90
2023-04-05T20:20:00.788Z,99.90
2023-04-05T20:22:36.073Z,99.90
2023-04-05T20:25:42.080Z,99.90
2023-04-05T20:28:43.538Z,99.90
2023-04-05T20:31:30.913Z,99.90
2023-04-05T20:34:14.963Z,99.90
2023-04-05T20:36:52.337Z,99.90
2023-04-05T20:39:19.518Z,99.90
2023-04-05T20:41:47.276Z,99.90
2023-04-05T20:44:14.689Z,99.90
2023-04-05T20:46:42.108Z,99.90
2023-04-05T20:49:12.756Z,99.90
2023-04-05T20:51:43.096Z,99.90
2023-04-05T20:54:16.831Z,99.90
2023-04-05T20:56:44.603Z,99.90
2023-04-05T20:59:12.544Z,99.90
2023-04-05T21:01:47.789Z,99.90
2023-04-05T21:04:15.214Z,99.90
2023-04-05T21:06:42.795Z,99.90
2023-04-05T21:09:11.675Z,99.90
2023-04-05T21:11:38.923Z,99.90
2023-04-05T21:14:06.287Z,99.90
2023-04-05T21:16:33.558Z,99.90
2023-04-05T21:19:01.040Z,99.90
2023-04-05T21:21:28.315Z,99.90
2023-04-05T21:23:55.511Z,99.90
2023-04-05T21:26:22.759Z,99.90
2023-04-05T21:28:50.158Z,99.90
2023-04-05T21:31:18.019Z,99.90
2023-04-05T21:33:45.438Z,99.90
2023-04-05T21:36:13.572Z,99.90
2023-04-05T21:38:42.980Z,99.90
2023-04-05T21:41:10.358Z,99.90
2023-04-05T21:43:38.206Z,99.90
2023-04-05T21:46:08.030Z,99.90
2023-04-05T21:48:35.861Z,99.90
2023-04-05T21:51:03.115Z,99.90
2023-04-05T21:53:30.553Z,99.90
2023-04-05T21:55:58.156Z,99.90
2023-04-05T21:58:26.406Z,99.90
2023-04-05T22:00:53.775Z,99.90
2023-04-05T22:03:21.386Z,99.90
2023-04-05T22:05:48.631Z,99.90
2023-04-05T22:08:15.810Z,99.90
2023-04-05T22:10:43.804Z,99.90
2023-04-05T22:13:11.296Z,99.90
2023-04-05T22:15:38.445Z,99.90
2023-04-05T22:18:05.882Z,99.90
2023-04-05T22:20:33.159Z,99.90
2023-04-05T22:23:00.444Z,99.90
2023-04-05T22:25:27.633Z,99.90
2023-04-05T22:27:59.765Z,99.90
2023-04-05T22:30:33.787Z,99.90
2023-04-05T22:33:13.019Z,99.90
2023-04-05T22:35:41.425Z,99.90
2023-04-05T22:38:08.733Z,99.90
2023-04-05T22:40:36.007Z,99.90
2023-04-05T22:43:03.315Z,99.90
2023-04-05T22:45:30.456Z,99.90
2023-04-05T22:47:57.647Z,99.90
2023-04-05T22:50:24.861Z,99.90
2023-04-05T22:52:52.006Z,99.90
2023-04-05T22:55:19.345Z,99.90
2023-04-05T22:57:46.498Z,99.90
2023-04-05T23:00:14.824Z,99.90
2023-04-05T23:02:42.346Z,99.90
2023-04-05T23:05:13.139Z,99.90
2023-04-05T23:07:40.345Z,99.90
2023-04-05T23:10:07.951Z,99.90
2023-04-05T23:12:35.050Z,99.90
2023-04-05T23:15:02.147Z,99.90
2023-04-05T23:17:29.514Z,99.90
2023-04-05T23:19:56.650Z,99.90
2023-04-05T23:22:23.906Z,99.90
2023-04-05T23:24:51.073Z,99.90
2023-04-05T23:27:18.207Z,99.90
2023-04-05T23:29:45.514Z,99.90
2023-04-05T23:32:13.636Z,99.90
2023-04-05T23:34:40.858Z,99.90
2023-04-05T23:37:08.002Z,99.90
2023-04-05T23:39:35.159Z,99.90
2023-04-05T23:42:02.704Z,99.90
2023-04-05T23:44:29.908Z,99.90
2023-04-05T23:46:58.068Z,99.90
2023-04-05T23:49:28.192Z,99.90
2023-04-05T23:51:55.777Z,99.90
2023-04-05T23:54:23.304Z,99.90
2023-04-05T23:56:50.683Z,99.90
2023-04-05T23:59:17.938Z,99.90
